Terminal Aerodrome Forecast
Issued by NWS Corpus Christi, TX

Home | Current Version | Previous Version | Text Only | Print | Product List | Glossary On
Versions: 1 2 3 4 5 6 7 8 9 10 11 12 13 14 15 16 17 18 19
880
FTUS44 KCRP 141737
TAFVCT
TAF
KVCT 141737Z 1418/1518 17019G27KT P6SM BKN040 BKN250
     FM150000 15013KT P6SM FEW035 SCT250
     FM150700 17007KT 4SM BR BKN011
     FM151000 19005KT 1SM BR OVC004
      TEMPO 1510/1514 1/2SM FG OVC002
     FM151530 24007KT P6SM VCSH BKN015=

USA.gov is the U.S. government's official web portal to all federal, state and local government web resources and services.